»·PEaware :: N262N KAVX-KSAN

N262N :: KAVX-KSAN

FLIGHT INFORMATION

Flight Status: Arrived
Operator: Privately registered:
United States
More flights under this callsign
Pilot: Daniel M. (19571)
Aircraft: Unknown
(B60T)
More flights by this aircraft type
Origin: KAVX Catalina
United States
Destination: KSAN San Diego Intl-Lindbergh
United States
More flights between these airports :: More routes between these airports
Route: +SXC V208 LAX118R CARDI MZB320R MZB
File this flight plan on PilotEdge
Remarks: I-8 Attempt
Altitude:
(Current/Filed)
9,000ft
Speed:
(Current/Filed)
200kts
Departed: 27-Jul-18 07:58 PM
Arrived: 27-Jul-18 08:40 PM
Distance/Time
Traveled:
74nm/0:42
Distance/Time
To Go:
Arrived

Flight Plot

Page will automatically refresh every two minutes.


Map Options




Map Legend


Flown Route
Filed Route
Departure Airport
Arrival Airport
Navaid (VOR, NDB)
Fix

Horizontal Profiles

Position Reports

Time Latitude Longitude Heading Altitude Ground
Speed
27-Jul-18 19:51 33.403786 -118.414889 313 1605ft 0kts
27-Jul-18 19:52 33.403786 -118.414889 313 1605ft 0kts
27-Jul-18 19:53 33.403786 -118.414889 313 1605ft 0kts
27-Jul-18 19:54 33.403786 -118.414889 313 1605ft 0kts
27-Jul-18 19:55 33.404313 -118.415019 356 1605ft 10kts
27-Jul-18 19:56 33.406493 -118.412542 55 1605ft 9kts
27-Jul-18 19:57 33.407096 -118.411519 54 1605ft 0kts
27-Jul-18 19:58 33.407331 -118.411825 236 1605ft 0kts
27-Jul-18 19:59 33.391601 -118.435036 211 2872ft 149kts
27-Jul-18 20:00 33.367909 -118.398813 86 3913ft 178kts
27-Jul-18 20:01 33.364393 -118.336400 98 4318ft 188kts
27-Jul-18 20:02 33.356125 -118.274127 99 5568ft 189kts
27-Jul-18 20:03 33.347998 -118.212388 99 6562ft 187kts
27-Jul-18 20:04 33.339833 -118.150369 99 7563ft 189kts
27-Jul-18 20:05 33.331595 -118.088247 99 8560ft 189kts
27-Jul-18 20:06 33.323202 -118.025255 99 8962ft 191kts
27-Jul-18 20:07 33.314958 -117.963540 100 8960ft 186kts
27-Jul-18 20:08 33.306777 -117.902500 100 8937ft 185kts
27-Jul-18 20:09 33.298631 -117.841944 100 8939ft 184kts
27-Jul-18 20:10 33.290508 -117.781586 100 8939ft 183kts
27-Jul-18 20:11 33.281993 -117.721035 101 8942ft 186kts
27-Jul-18 20:12 33.272796 -117.660371 101 8945ft 184kts
27-Jul-18 20:13 33.263674 -117.600186 101 8956ft 184kts
27-Jul-18 20:14 33.239539 -117.549827 136 8994ft 178kts
27-Jul-18 20:15 33.204192 -117.506219 135 8997ft 186kts
27-Jul-18 20:16 33.167928 -117.460966 135 8997ft 189kts
27-Jul-18 20:17 33.129846 -117.417600 156 8994ft 188kts
27-Jul-18 20:18 33.082282 -117.391565 157 8996ft 188kts
27-Jul-18 20:19 33.033995 -117.364785 157 8526ft 197kts
27-Jul-18 20:20 32.984240 -117.337185 156 7564ft 198kts
27-Jul-18 20:21 32.942150 -117.313830 156 7142ft 195kts
27-Jul-18 20:22 32.894149 -117.287220 156 6993ft 182kts
27-Jul-18 20:23 32.849578 -117.262549 156 6999ft 171kts
27-Jul-18 20:24 32.805256 -117.238053 156 7012ft 184kts
27-Jul-18 20:25 32.756514 -117.220721 188 7028ft 186kts
27-Jul-18 20:26 32.730201 -117.176104 91 7018ft 196kts
27-Jul-18 20:27 32.730164 -117.108631 90 6282ft 208kts
27-Jul-18 20:28 32.730203 -117.039379 90 5477ft 209kts
27-Jul-18 20:29 32.730155 -116.970947 90 4992ft 203kts
27-Jul-18 20:30 32.730104 -116.904896 90 4983ft 198kts
27-Jul-18 20:31 32.730047 -116.839726 90 4984ft 198kts
27-Jul-18 20:32 32.719095 -116.779194 149 4988ft 192kts
27-Jul-18 20:33 32.684314 -116.808553 259 5000ft 185kts
27-Jul-18 20:34 32.675457 -116.868945 256 4989ft 185kts
27-Jul-18 20:35 32.668488 -116.929803 281 4588ft 189kts
27-Jul-18 20:36 32.685118 -116.989854 284 3773ft 191kts
27-Jul-18 20:37 32.699431 -117.049199 285 2985ft 188kts
27-Jul-18 20:38 32.713561 -117.107568 286 1820ft 175kts
27-Jul-18 20:39 32.723849 -117.149688 285 628ft 99kts
27-Jul-18 20:40 32.732025 -117.183284 283 18ft 72kts
27-Jul-18 20:41 32.734110 -117.187367 104 18ft 11kts
27-Jul-18 20:42 32.733041 -117.182874 107 18ft 14kts
27-Jul-18 20:43 32.733571 -117.179632 326 18ft 10kts
27-Jul-18 20:44 32.733844 -117.179757 99 18ft 0kts

Navigation Log

Ident Type
1. KAVX Airport
2. SXC Navaid
3. CARDI Fix
4. MZB Navaid
5. KSAN Airport